createdAt,value
2023-04-21T00:00:40.530Z,3.45
2023-04-21T00:03:09.605Z,3.00
2023-04-21T00:05:42.358Z,3.13
2023-04-21T00:08:12.054Z,3.53
2023-04-21T00:10:40.402Z,2.67
2023-04-21T00:13:09.109Z,2.35
2023-04-21T00:15:37.580Z,2.67
2023-04-21T00:18:06.290Z,2.50
2023-04-21T00:20:34.650Z,3.58
2023-04-21T00:23:03.642Z,2.83
2023-04-21T00:25:33.382Z,2.92
2023-04-21T00:28:01.729Z,2.50
2023-04-21T00:30:30.083Z,2.65
2023-04-21T00:32:58.429Z,2.85
2023-04-21T00:35:27.129Z,2.33
2023-04-21T00:37:55.463Z,2.05
2023-04-21T00:40:23.902Z,2.47
2023-04-21T00:42:53.553Z,2.58
2023-04-21T00:45:21.888Z,2.92
2023-04-21T00:47:50.322Z,2.45
2023-04-21T00:50:18.723Z,2.90
2023-04-21T00:52:49.037Z,2.97
2023-04-21T00:55:17.590Z,2.17
2023-04-21T00:57:46.522Z,1.90
2023-04-21T01:00:20.381Z,3.80
2023-04-21T01:02:49.074Z,2.35
2023-04-21T01:05:18.238Z,1.90
2023-04-21T01:07:46.832Z,1.58
2023-04-21T01:10:15.153Z,1.80
2023-04-21T01:12:46.853Z,2.03
2023-04-21T01:15:17.133Z,2.15
2023-04-21T01:17:45.867Z,2.30
2023-04-21T01:20:15.670Z,2.92
2023-04-21T01:22:45.759Z,2.72
2023-04-21T01:25:14.097Z,2.85
2023-04-21T01:27:42.425Z,3.10
2023-04-21T01:30:11.134Z,2.70
2023-04-21T01:32:39.510Z,2.15
2023-04-21T01:35:08.390Z,2.83
2023-04-21T01:37:37.145Z,2.30
2023-04-21T01:40:09.244Z,1.92
2023-04-21T01:42:38.617Z,3.20
2023-04-21T01:45:07.506Z,3.70
2023-04-21T01:47:35.818Z,3.03
2023-04-21T01:50:04.441Z,2.42
2023-04-21T01:52:32.755Z,2.38
2023-04-21T01:55:01.784Z,2.42
2023-04-21T01:57:31.524Z,2.33
2023-04-21T01:59:59.994Z,2.72
2023-04-21T02:02:28.400Z,3.20
2023-04-21T02:04:56.781Z,2.92
2023-04-21T02:07:25.207Z,3.20
2023-04-21T02:09:53.484Z,2.35
2023-04-21T02:12:21.799Z,2.65
2023-04-21T02:14:51.499Z,2.33
2023-04-21T02:17:19.733Z,2.00
2023-04-21T02:19:48.064Z,2.45
2023-04-21T02:22:16.388Z,2.28
2023-04-21T02:24:44.728Z,2.47
2023-04-21T02:27:13.023Z,2.47
2023-04-21T02:29:41.272Z,2.53
2023-04-21T02:32:22.251Z,2.13
2023-04-21T02:34:53.614Z,2.30
2023-04-21T02:37:22.054Z,2.17
2023-04-21T02:39:50.382Z,2.63
2023-04-21T02:42:18.617Z,2.85
2023-04-21T02:44:46.947Z,1.98
2023-04-21T02:47:18.146Z,3.17
2023-04-21T02:49:46.496Z,2.33
2023-04-21T02:52:14.854Z,2.45
2023-04-21T02:54:43.220Z,2.13
2023-04-21T02:57:11.511Z,3.45
2023-04-21T02:59:40.203Z,2.80
2023-04-21T03:02:08.548Z,1.70
2023-04-21T03:04:38.551Z,2.30
2023-04-21T03:07:06.981Z,3.35
2023-04-21T03:09:35.325Z,1.92
2023-04-21T03:12:04.079Z,2.10
2023-04-21T03:14:32.385Z,2.70
2023-04-21T03:17:00.675Z,1.73
2023-04-21T03:19:29.766Z,2.25
2023-04-21T03:21:59.416Z,2.53
2023-04-21T03:24:27.997Z,2.95
2023-04-21T03:26:57.057Z,3.17
2023-04-21T03:29:25.567Z,3.78
2023-04-21T03:31:53.923Z,1.92
2023-04-21T03:34:22.275Z,3.63
2023-04-21T03:36:50.598Z,2.53
2023-04-21T03:39:20.712Z,2.50
2023-04-21T03:41:49.195Z,1.92
2023-04-21T03:44:17.505Z,2.28
2023-04-21T03:46:45.772Z,2.47
2023-04-21T03:49:14.093Z,2.95
2023-04-21T03:51:42.412Z,2.17
2023-04-21T03:54:10.733Z,1.55
2023-04-21T03:56:40.367Z,2.17
2023-04-21T03:59:08.835Z,2.67
2023-04-21T04:01:37.806Z,1.65
2023-04-21T04:04:06.593Z,3.33
2023-04-21T04:06:35.695Z,1.65
2023-04-21T04:09:04.666Z,2.28
2023-04-21T04:11:33.119Z,4.00
2023-04-21T04:14:02.899Z,2.40
2023-04-21T04:16:31.301Z,2.70
2023-04-21T04:18:59.620Z,1.55
2023-04-21T04:21:28.599Z,2.15
2023-04-21T04:23:56.989Z,1.92
2023-04-21T04:26:26.203Z,2.75
2023-04-21T04:28:56.420Z,4.38
2023-04-21T04:31:26.462Z,1.83
2023-04-21T04:33:55.698Z,2.28
2023-04-21T04:36:24.200Z,3.22
2023-04-21T04:38:52.591Z,3.50
2023-04-21T04:41:20.975Z,2.63
2023-04-21T04:43:49.322Z,1.77
2023-04-21T04:46:20.387Z,2.47
2023-04-21T04:48:50.449Z,3.58
2023-04-21T04:51:18.875Z,3.25
2023-04-21T04:53:47.164Z,3.40
2023-04-21T04:56:15.471Z,2.45
2023-04-21T04:58:46.462Z,2.72
2023-04-21T05:01:15.001Z,3.47
2023-04-21T05:03:43.553Z,2.63
2023-04-21T05:06:14.066Z,2.80
2023-04-21T05:08:42.416Z,2.40
2023-04-21T05:11:10.736Z,3.33
2023-04-21T05:13:40.650Z,3.20
2023-04-21T05:16:11.489Z,3.22
2023-04-21T05:18:39.952Z,3.53
2023-04-21T05:21:08.368Z,2.50
2023-04-21T05:23:38.058Z,2.53
2023-04-21T05:26:06.430Z,2.40
2023-04-21T05:28:35.842Z,4.30
2023-04-21T05:31:04.184Z,2.10
2023-04-21T05:33:32.737Z,2.67
2023-04-21T05:36:01.062Z,2.78
2023-04-21T05:38:29.381Z,2.75
2023-04-21T05:40:59.561Z,2.42
2023-04-21T05:43:27.871Z,2.13
2023-04-21T05:45:56.290Z,2.15
2023-04-21T05:48:24.583Z,3.88
2023-04-21T05:50:52.919Z,2.75
2023-04-21T05:53:21.264Z,3.38
2023-04-21T05:55:49.568Z,2.15
2023-04-21T05:58:19.251Z,3.10
2023-04-21T06:00:49.158Z,2.28
2023-04-21T06:03:17.730Z,2.58
2023-04-21T06:05:47.354Z,2.28
2023-04-21T06:08:15.811Z,2.83
2023-04-21T06:10:44.111Z,3.40
2023-04-21T06:13:12.422Z,2.50
2023-04-21T06:15:42.160Z,2.38
2023-04-21T06:18:10.668Z,3.13
2023-04-21T06:20:40.846Z,3.10
2023-04-21T06:23:09.807Z,3.05
2023-04-21T06:25:38.178Z,3.25
2023-04-21T06:28:06.839Z,3.90
2023-04-21T06:30:35.210Z,3.03
2023-04-21T06:33:06.776Z,2.97
2023-04-21T06:35:35.248Z,2.28
2023-04-21T06:38:03.624Z,2.35
2023-04-21T06:40:31.913Z,3.35
2023-04-21T06:43:00.652Z,2.65
2023-04-21T06:45:28.980Z,2.90
2023-04-21T06:47:57.364Z,2.53
2023-04-21T06:50:27.138Z,2.97
2023-04-21T06:52:55.590Z,2.85
2023-04-21T06:55:23.943Z,2.35
2023-04-21T06:57:52.275Z,2.22
2023-04-21T07:00:20.908Z,2.78
2023-04-21T07:02:49.360Z,2.10
2023-04-21T07:05:17.933Z,2.72
2023-04-21T07:07:47.707Z,2.15
2023-04-21T07:10:19.367Z,2.97
2023-04-21T07:12:47.884Z,2.75
2023-04-21T07:15:17.227Z,2.58
2023-04-21T07:17:45.697Z,2.95
2023-04-21T07:20:14.243Z,2.58
2023-04-21T07:22:42.565Z,2.15
2023-04-21T07:25:12.764Z,2.85
2023-04-21T07:27:41.266Z,2.30
2023-04-21T07:30:10.095Z,2.97
2023-04-21T07:32:38.875Z,2.80
2023-04-21T07:35:07.926Z,2.47
2023-04-21T07:37:36.330Z,3.55
2023-04-21T07:40:05.039Z,2.63
2023-04-21T07:42:34.685Z,2.45
2023-04-21T07:45:03.059Z,3.55
2023-04-21T07:47:31.487Z,2.03
2023-04-21T07:49:59.950Z,3.08
2023-04-21T07:52:28.263Z,3.25
2023-04-21T07:54:56.594Z,2.00
2023-04-21T07:57:25.264Z,2.95
2023-04-21T07:59:55.030Z,2.30
2023-04-21T08:02:23.624Z,2.45
2023-04-21T08:04:52.348Z,2.25
2023-04-21T08:07:20.941Z,2.55
2023-04-21T08:09:49.276Z,1.90
2023-04-21T08:12:17.582Z,2.47
2023-04-21T08:14:45.939Z,3.17
2023-04-21T08:17:15.746Z,2.42
2023-04-21T08:19:44.382Z,3.05
2023-04-21T08:22:12.704Z,2.67
2023-04-21T08:24:41.112Z,3.33
2023-04-21T08:27:09.407Z,3.50
2023-04-21T08:29:37.973Z,2.35
2023-04-21T08:32:06.702Z,2.38
2023-04-21T08:34:36.430Z,3.40
2023-04-21T08:37:04.920Z,3.03
2023-04-21T08:39:33.248Z,2.90
2023-04-21T08:42:03.039Z,3.00
2023-04-21T08:44:31.388Z,2.72
2023-04-21T08:47:00.758Z,2.35
2023-04-21T08:49:31.349Z,2.38
2023-04-21T08:52:01.779Z,2.92
2023-04-21T08:54:31.010Z,3.08
2023-04-21T08:57:11.830Z,2.25
2023-04-21T08:59:43.337Z,2.33
2023-04-21T09:02:12.476Z,2.92
2023-04-21T09:04:41.834Z,2.83
2023-04-21T09:07:11.746Z,3.42
2023-04-21T09:09:53.677Z,1.77
2023-04-21T09:12:22.163Z,3.10
2023-04-21T09:14:50.536Z,3.60
2023-04-21T09:17:19.791Z,2.95
2023-04-21T09:19:48.200Z,2.67
2023-04-21T09:22:18.606Z,2.42
2023-04-21T09:24:47.955Z,3.13
2023-04-21T09:27:17.360Z,3.20
2023-04-21T09:29:49.479Z,2.70
2023-04-21T09:32:21.420Z,3.17
2023-04-21T09:34:49.825Z,3.08
2023-04-21T09:37:24.281Z,3.10
2023-04-21T09:40:04.254Z,2.05
2023-04-21T09:42:37.839Z,2.38
2023-04-21T09:45:29.115Z,2.47
2023-04-21T09:47:59.591Z,2.63
2023-04-21T09:51:01.774Z,2.83
2023-04-21T09:53:18.486Z,2.30
2023-04-21T09:55:49.511Z,2.95
2023-04-21T09:58:18.486Z,2.35
2023-04-21T10:00:47.162Z,3.05
2023-04-21T10:03:16.429Z,2.78
2023-04-21T10:05:45.227Z,2.10
2023-04-21T10:08:13.948Z,2.75
2023-04-21T10:10:43.623Z,2.60
2023-04-21T10:13:16.628Z,2.60
2023-04-21T10:15:45.035Z,2.80
2023-04-21T10:18:14.781Z,2.65
2023-04-21T10:20:55.870Z,2.50
2023-04-21T10:23:30.863Z,2.92
2023-04-21T10:28:42.095Z,3.10
2023-04-21T10:31:20.901Z,2.45
2023-04-21T10:34:07.763Z,2.70
2023-04-21T10:36:36.599Z,2.63
2023-04-21T10:39:06.120Z,2.65
2023-04-21T10:41:35.005Z,2.88
2023-04-21T10:44:13.701Z,2.55
2023-04-21T10:46:42.465Z,3.25
2023-04-21T10:49:11.237Z,2.30
2023-04-21T10:51:58.253Z,2.17
2023-04-21T10:54:26.795Z,3.08
2023-04-21T10:56:55.581Z,2.75
2023-04-21T10:59:25.896Z,3.75
2023-04-21T11:01:54.367Z,2.17
2023-04-21T11:04:23.950Z,2.22
2023-04-21T11:07:07.498Z,3.50
2023-04-21T11:09:36.052Z,2.95
2023-04-21T11:12:07.387Z,2.47
2023-04-21T11:14:37.725Z,2.30
2023-04-21T11:17:06.956Z,2.38
2023-04-21T11:19:35.301Z,2.35
2023-04-21T11:22:03.657Z,2.22
2023-04-21T11:24:32.660Z,2.97
2023-04-21T11:27:02.042Z,2.97
2023-04-21T11:29:30.908Z,2.75
2023-04-21T11:32:00.749Z,3.22
2023-04-21T11:34:29.123Z,2.30
2023-04-21T11:36:57.436Z,2.53
2023-04-21T11:39:25.764Z,2.08
2023-04-21T11:41:54.593Z,2.65
2023-04-21T11:44:36.184Z,2.60
2023-04-21T11:47:15.523Z,2.28
2023-04-21T11:49:47.704Z,2.22
2023-04-21T11:52:26.216Z,2.80
2023-04-21T11:54:58.565Z,2.58
2023-04-21T11:57:28.111Z,3.20
2023-04-21T11:59:56.745Z,2.97
2023-04-21T12:02:27.424Z,2.83
2023-04-21T12:05:00.166Z,2.50
2023-04-21T12:07:28.782Z,3.55
2023-04-21T12:09:57.170Z,3.38
2023-04-21T12:12:25.467Z,2.55
2023-04-21T12:14:54.170Z,2.55
2023-04-21T12:17:22.765Z,1.70
2023-04-21T12:19:52.485Z,1.70
2023-04-21T12:22:22.993Z,1.65
2023-04-21T12:24:51.431Z,1.58
2023-04-21T12:27:20.280Z,2.22
2023-04-21T12:29:48.598Z,1.70
2023-04-21T12:32:17.162Z,1.40
2023-04-21T12:34:45.538Z,0.95
2023-04-21T12:37:15.868Z,0.80
2023-04-21T12:39:44.185Z,0.73
2023-04-21T12:42:12.607Z,0.85
2023-04-21T12:44:41.051Z,0.60
2023-04-21T12:47:09.630Z,0.50
2023-04-21T12:49:38.041Z,0.77
2023-04-21T12:52:06.603Z,0.43
2023-04-21T12:54:36.332Z,0.60
2023-04-21T12:57:04.656Z,0.60
2023-04-21T12:59:33.351Z,0.88
2023-04-21T13:02:02.021Z,0.57
2023-04-21T13:04:30.762Z,0.60
2023-04-21T13:06:59.266Z,0.93
2023-04-21T13:09:27.644Z,0.90
2023-04-21T13:11:57.424Z,0.77
2023-04-21T13:14:25.917Z,0.80
2023-04-21T13:16:54.675Z,0.95
2023-04-21T13:19:23.090Z,0.63
2023-04-21T13:21:53.871Z,0.60
2023-04-21T13:24:22.656Z,0.85
2023-04-21T13:26:51.042Z,1.00
2023-04-21T13:29:20.743Z,0.90
2023-04-21T13:31:49.156Z,1.40
2023-04-21T13:34:17.526Z,1.33
2023-04-21T13:36:45.903Z,1.13
2023-04-21T13:39:14.327Z,1.17
2023-04-21T13:41:42.688Z,0.80
2023-04-21T13:44:11.047Z,0.73
2023-04-21T13:46:40.981Z,1.35
2023-04-21T13:49:09.368Z,1.10
2023-04-21T13:51:37.700Z,0.85
2023-04-21T13:54:06.336Z,0.70
2023-04-21T13:56:34.648Z,0.60
2023-04-21T13:59:02.987Z,0.73
2023-04-21T14:01:31.362Z,1.10
2023-04-21T14:04:01.406Z,0.63
2023-04-21T14:06:29.891Z,0.45
2023-04-21T14:08:58.280Z,0.95
2023-04-21T14:11:26.615Z,0.90
2023-04-21T14:14:08.368Z,1.15
2023-04-21T14:16:38.356Z,0.80
2023-04-21T14:19:08.314Z,0.50
2023-04-21T14:21:36.704Z,0.60
2023-04-21T14:24:05.068Z,0.50
2023-04-21T14:26:33.412Z,0.50
2023-04-21T14:29:01.748Z,0.85
2023-04-21T14:31:30.192Z,0.50
2023-04-21T14:33:58.630Z,0.60
2023-04-21T14:36:28.360Z,0.65
2023-04-21T14:38:57.082Z,0.60
2023-04-21T14:41:25.425Z,0.80
2023-04-21T14:43:56.503Z,0.70
2023-04-21T14:46:25.127Z,0.80
2023-04-21T14:48:53.492Z,0.50
2023-04-21T14:51:21.875Z,0.70
2023-04-21T14:53:52.140Z,0.82
2023-04-21T14:56:20.608Z,0.70
2023-04-21T14:58:48.959Z,0.93
2023-04-21T15:01:17.335Z,0.50
2023-04-21T15:03:46.099Z,0.50
2023-04-21T15:06:16.223Z,0.80
2023-04-21T15:08:44.633Z,0.98
2023-04-21T15:11:14.359Z,0.60
2023-04-21T15:13:42.773Z,0.60
2023-04-21T15:16:11.215Z,0.75
2023-04-21T15:18:39.576Z,0.70
2023-04-21T15:21:07.923Z,0.75
2023-04-21T15:23:36.277Z,0.60
2023-04-21T15:26:04.727Z,0.70
2023-04-21T15:28:35.954Z,0.40
2023-04-21T15:31:04.441Z,0.50
2023-04-21T15:33:32.877Z,0.40
2023-04-21T15:36:01.238Z,0.57
2023-04-21T15:38:29.556Z,0.45
2023-04-21T15:41:01.059Z,0.50
2023-04-21T15:43:30.381Z,0.50
2023-04-21T15:46:00.198Z,0.80
2023-04-21T15:48:28.636Z,0.50
2023-04-21T15:50:58.214Z,0.45
2023-04-21T15:53:26.684Z,0.60
2023-04-21T15:55:55.110Z,0.82
2023-04-21T15:58:23.504Z,0.70
2023-04-21T16:00:51.815Z,0.35
2023-04-21T16:03:22.506Z,0.57
2023-04-21T16:05:51.111Z,0.57
2023-04-21T16:08:19.711Z,0.70
2023-04-21T16:10:48.220Z,0.85
2023-04-21T16:13:16.558Z,0.70
2023-04-21T16:15:44.997Z,0.55
2023-04-21T16:18:13.620Z,0.50
2023-04-21T16:20:45.828Z,0.32
2023-04-21T16:23:15.017Z,0.80
2023-04-21T16:25:43.648Z,0.80
2023-04-21T16:28:12.303Z,0.90
2023-04-21T16:30:43.499Z,0.70
2023-04-21T16:33:13.090Z,0.55
2023-04-21T16:35:42.878Z,0.55
2023-04-21T16:38:11.207Z,0.63
2023-04-21T16:40:39.923Z,0.90
2023-04-21T16:43:08.249Z,0.63
2023-04-21T16:45:36.707Z,0.50
2023-04-21T16:48:05.238Z,0.60
2023-04-21T16:50:33.706Z,0.70
2023-04-21T16:53:03.408Z,0.88
2023-04-21T16:55:31.743Z,0.65
2023-04-21T16:58:01.238Z,0.73
2023-04-21T17:00:30.489Z,0.60
2023-04-21T17:02:59.165Z,0.68
2023-04-21T17:05:27.683Z,0.45
2023-04-21T17:07:56.097Z,0.55
2023-04-21T17:10:27.073Z,0.65
2023-04-21T17:12:55.444Z,0.47
2023-04-21T17:15:23.764Z,0.50
2023-04-21T17:17:52.121Z,0.55
2023-04-21T17:20:20.593Z,0.43
2023-04-21T17:22:48.920Z,0.63
2023-04-21T17:25:17.263Z,0.45
2023-04-21T17:27:47.026Z,0.85
2023-04-21T17:30:15.605Z,0.82
2023-04-21T17:32:43.977Z,0.50
2023-04-21T17:35:12.396Z,0.50
2023-04-21T17:37:43.182Z,0.90
2023-04-21T17:40:12.524Z,0.60
2023-04-21T17:42:41.719Z,0.60
2023-04-21T17:45:12.022Z,0.65
2023-04-21T17:47:40.395Z,0.93
2023-04-21T17:50:10.011Z,0.45
2023-04-21T17:52:38.316Z,0.98
2023-04-21T17:55:07.067Z,0.52
2023-04-21T17:57:36.220Z,0.75
2023-04-21T18:00:08.300Z,0.65
2023-04-21T18:02:38.027Z,0.90
2023-04-21T18:05:06.918Z,0.80
2023-04-21T18:07:35.364Z,0.98
2023-04-21T18:10:03.901Z,0.98
2023-04-21T18:12:32.257Z,0.50
2023-04-21T18:15:00.701Z,0.80
2023-04-21T18:17:29.022Z,1.10
2023-04-21T18:19:58.708Z,0.90
2023-04-21T18:22:27.112Z,0.60
2023-04-21T18:24:55.435Z,1.13
2023-04-21T18:27:23.739Z,0.55
2023-04-21T18:29:52.286Z,0.73
2023-04-21T18:32:20.917Z,0.88
2023-04-21T18:34:49.231Z,0.77
2023-04-21T18:37:19.032Z,0.50
2023-04-21T18:39:47.365Z,0.70
2023-04-21T18:42:15.686Z,0.68
2023-04-21T18:44:44.047Z,0.80
2023-04-21T18:47:12.690Z,0.40
2023-04-21T18:49:42.018Z,0.68
2023-04-21T18:52:10.670Z,0.77
2023-04-21T18:54:40.495Z,0.80
2023-04-21T18:57:09.170Z,0.80
2023-04-21T18:59:37.526Z,0.57
2023-04-21T19:02:07.438Z,0.73
2023-04-21T19:04:36.262Z,0.95
2023-04-21T19:07:08.309Z,0.60
2023-04-21T19:09:36.669Z,0.80
2023-04-21T19:12:06.718Z,0.98
2023-04-21T19:14:45.929Z,0.73
2023-04-21T19:17:15.873Z,0.82
2023-04-21T19:19:44.255Z,1.63
2023-04-21T19:22:12.611Z,0.90
2023-04-21T19:24:41.161Z,1.13
2023-04-21T19:27:10.912Z,0.82
2023-04-21T19:29:39.919Z,0.90
2023-04-21T19:32:08.444Z,1.05
2023-04-21T19:34:36.973Z,1.20
2023-04-21T19:37:05.815Z,0.55
2023-04-21T19:39:34.482Z,1.33
2023-04-21T19:42:02.777Z,1.20
2023-04-21T19:44:32.470Z,0.93
2023-04-21T19:47:01.271Z,1.10
2023-04-21T19:49:29.630Z,0.75
2023-04-21T19:51:57.932Z,0.45
2023-04-21T19:54:27.017Z,0.52
2023-04-21T19:56:55.338Z,0.30
2023-04-21T19:59:23.684Z,0.20
2023-04-21T20:01:53.544Z,0.10
2023-04-21T20:04:22.249Z,0.40
2023-04-21T20:06:50.845Z,0.20
2023-04-21T20:09:19.202Z,0.20
2023-04-21T20:11:47.531Z,0.20
2023-04-21T20:14:16.892Z,0.20
2023-04-21T20:16:46.309Z,0.20
2023-04-21T20:19:17.195Z,0.43
2023-04-21T20:21:45.616Z,0.17
2023-04-21T20:24:13.983Z,0.25
2023-04-21T20:26:42.471Z,0.10
2023-04-21T20:29:10.927Z,0.22
2023-04-21T20:31:39.317Z,0.30
2023-04-21T20:34:08.357Z,0.30
2023-04-21T20:36:38.064Z,0.10
2023-04-21T20:39:06.884Z,0.30
2023-04-21T20:41:35.263Z,0.10
2023-04-21T20:44:04.202Z,0.10
2023-04-21T20:46:32.655Z,0.65
2023-04-21T20:49:01.140Z,0.17
2023-04-21T20:51:29.510Z,0.20
2023-04-21T20:53:59.263Z,0.22
2023-04-21T20:56:27.764Z,0.20
2023-04-21T20:58:56.370Z,0.17
2023-04-21T21:01:24.786Z,0.20
2023-04-21T21:03:54.060Z,0.38
2023-04-21T21:06:22.775Z,0.38
2023-04-21T21:08:51.436Z,0.15
2023-04-21T21:11:21.517Z,0.35
2023-04-21T21:13:49.834Z,0.40
2023-04-21T21:16:18.282Z,0.10
2023-04-21T21:18:46.653Z,0.28
2023-04-21T21:21:15.090Z,0.10
2023-04-21T21:23:43.437Z,0.28
2023-04-21T21:26:12.331Z,0.20
2023-04-21T21:28:42.114Z,0.20
2023-04-21T21:31:10.450Z,0.20
2023-04-21T21:33:38.902Z,0.28
2023-04-21T21:36:07.647Z,0.10
2023-04-21T21:38:35.998Z,0.13
2023-04-21T21:41:05.060Z,0.17
2023-04-21T21:43:33.734Z,0.90
2023-04-21T21:46:03.451Z,0.17
2023-04-21T21:48:31.873Z,0.20
2023-04-21T21:51:00.304Z,0.45
2023-04-21T21:53:28.644Z,0.50
2023-04-21T21:55:56.998Z,0.20
2023-04-21T21:58:25.372Z,0.20
2023-04-21T22:00:53.691Z,0.35
2023-04-21T22:03:23.770Z,0.52
2023-04-21T22:05:52.270Z,0.30
2023-04-21T22:08:20.641Z,0.30
2023-04-21T22:10:49.101Z,0.20
2023-04-21T22:13:17.429Z,0.32
2023-04-21T22:15:45.852Z,0.40
2023-04-21T22:18:14.253Z,0.20
2023-04-21T22:20:43.927Z,0.30
2023-04-21T22:23:12.410Z,0.10
2023-04-21T22:25:40.692Z,0.30
2023-04-21T22:28:09.031Z,0.10
2023-04-21T22:30:37.333Z,0.47
2023-04-21T22:33:06.003Z,0.30
2023-04-21T22:35:34.306Z,0.25
2023-04-21T22:38:03.985Z,0.22
2023-04-21T22:40:32.312Z,0.30
2023-04-21T22:43:00.684Z,0.25
2023-04-21T22:45:29.086Z,0.30
2023-04-21T22:47:57.457Z,0.10
2023-04-21T22:50:25.819Z,0.40
2023-04-21T22:52:54.124Z,0.20
2023-04-21T22:55:25.537Z,0.35
2023-04-21T22:57:53.932Z,0.17
2023-04-21T23:00:22.285Z,0.22
2023-04-21T23:02:50.675Z,1.42
2023-04-21T23:05:19.185Z,0.20
2023-04-21T23:07:47.740Z,0.63
2023-04-21T23:10:16.029Z,0.15
2023-04-21T23:12:46.234Z,0.17
2023-04-21T23:15:14.559Z,0.10
2023-04-21T23:17:45.239Z,0.10
2023-04-21T23:20:13.878Z,0.30
2023-04-21T23:22:42.199Z,0.10
2023-04-21T23:25:11.043Z,0.13
2023-04-21T23:27:39.363Z,0.38
2023-04-21T23:30:10.046Z,0.28
2023-04-21T23:32:38.410Z,0.20
2023-04-21T23:35:07.112Z,0.20
2023-04-21T23:37:35.478Z,0.52
2023-04-21T23:40:03.848Z,0.25
2023-04-21T23:42:32.233Z,0.55
2023-04-21T23:45:00.673Z,0.22
2023-04-21T23:47:30.373Z,0.32
2023-04-21T23:49:58.778Z,0.30
2023-04-21T23:52:27.105Z,0.10
2023-04-21T23:54:55.478Z,0.30
2023-04-21T23:57:23.929Z,0.17
2023-04-21T23:59:52.239Z,0.40
